Time;durP1;ratioP1;P1;durP2;ratioP2;P2;SDS_P1;SDS_P2;PMS_P1;PMS_P2;Temp;Humidity;BMP_temperature;BMP_pressure;BME280_temperature;BME280_humidity;BME280_pressure;Samples;Min_cycle;Max_cycle;Signal;HPM_P1;HPM_P2
2023/01/20 00:00:48;;;;;;;0.85;0.85;;;;;;;1.56;82.16;100499.78;5113178;28;20066;-80
2023/01/20 00:03:18;;;;;;;1.10;0.98;;;;;;;1.51;82.22;100501.47;5107173;28;20034;-80
2023/01/20 00:05:52;;;;;;;1.30;1.27;;;;;;;1.54;81.68;100501.47;5124655;28;20027;-78
2023/01/20 00:08:23;;;;;;;1.63;1.55;;;;;;;1.45;81.85;100505.75;5127640;28;20639;-79
2023/01/20 00:10:53;;;;;;;0.40;0.40;;;;;;;1.52;82.11;100508.38;5110889;28;20054;-79
2023/01/20 00:13:24;;;;;;;1.33;1.30;;;;;;;1.58;82.12;100507.53;5107427;29;20039;-78
2023/01/20 00:15:54;;;;;;;1.35;1.35;;;;;;;1.64;81.58;100515.34;5105438;28;20035;-78
2023/01/20 00:18:24;;;;;;;3.70;2.17;;;;;;;1.64;81.94;100514.47;5107077;29;20420;-81
2023/01/20 00:20:55;;;;;;;0.60;0.60;;;;;;;1.68;81.46;100514.50;5099386;28;20578;-80
2023/01/20 00:23:25;;;;;;;0.93;0.93;;;;;;;1.55;82.17;100520.47;5100804;29;20118;-79
2023/01/20 00:25:56;;;;;;;0.55;0.55;;;;;;;1.52;82.27;100521.31;5123135;28;20039;-80
2023/01/20 00:28:27;;;;;;;1.98;1.88;;;;;;;1.72;82.07;100529.19;5117452;28;20685;-79
2023/01/20 00:31:08;;;;;;;0.88;0.88;;;;;;;1.61;82.17;100522.22;5115917;28;20039;-80
2023/01/20 00:33:39;;;;;;;0.30;0.30;;;;;;;1.48;81.86;100522.13;5116943;28;20489;-79
2023/01/20 00:36:12;;;;;;;0.93;0.93;;;;;;;1.41;83.03;100525.53;5132823;28;20039;-78
2023/01/20 00:38:42;;;;;;;3.88;2.05;;;;;;;1.19;83.28;100522.78;5103946;29;21562;-79
2023/01/20 00:41:13;;;;;;;1.48;1.30;;;;;;;1.37;83.04;100528.94;5136768;28;20134;-79
2023/01/20 00:43:44;;;;;;;1.20;1.20;;;;;;;1.21;83.42;100527.97;5122122;28;20165;-79
2023/01/20 00:46:15;;;;;;;0.82;0.82;;;;;;;1.36;83.33;100532.41;5128081;28;20038;-78
2023/01/20 00:48:45;;;;;;;1.00;1.00;;;;;;;1.33;83.06;100533.22;5133299;28;20055;-80
2023/01/20 00:51:16;;;;;;;1.05;1.00;;;;;;;1.19;83.46;100535.72;5141292;28;20054;-79
2023/01/20 00:53:46;;;;;;;1.40;1.35;;;;;;;1.12;83.94;100538.22;5122353;28;20024;-78
2023/01/20 00:56:17;;;;;;;2.85;2.58;;;;;;;1.06;84.37;100536.44;5112034;28;20047;-78
2023/01/20 00:58:48;;;;;;;0.85;0.85;;;;;;;1.21;83.85;100541.75;5131799;28;20030;-79
2023/01/20 01:01:18;;;;;;;1.13;1.05;;;;;;;1.18;84.17;100543.44;5110822;28;20042;-79
2023/01/20 01:03:52;;;;;;;0.25;0.25;;;;;;;1.15;84.32;100546.88;5126949;28;20032;-78
2023/01/20 01:06:23;;;;;;;0.55;0.55;;;;;;;1.13;84.63;100540.81;5108398;28;20036;-79
2023/01/20 01:08:53;;;;;;;3.10;1.15;;;;;;;1.13;84.28;100545.13;5128621;28;20059;-80
2023/01/20 01:11:24;;;;;;;0.95;0.95;;;;;;;1.17;84.45;100541.69;5147393;28;20040;-80
2023/01/20 01:13:56;;;;;;;1.52;1.17;;;;;;;1.15;83.97;100544.28;5134042;28;20118;-77
2023/01/20 01:16:26;;;;;;;1.88;1.77;;;;;;;1.14;84.45;100550.28;5132392;28;20047;-79
2023/01/20 01:18:57;;;;;;;0.50;0.50;;;;;;;1.08;84.77;100555.41;5122581;28;20022;-80
2023/01/20 01:21:27;;;;;;;1.20;1.20;;;;;;;1.09;84.04;100554.56;5127121;28;20094;-79
2023/01/20 01:23:58;;;;;;;1.50;1.40;;;;;;;0.99;85.27;100561.38;5136450;28;20026;-78
2023/01/20 01:26:28;;;;;;;1.05;1.02;;;;;;;0.96;85.25;100563.03;5119363;28;20083;-80
2023/01/20 01:28:58;;;;;;;0.70;0.70;;;;;;;1.00;85.25;100564.81;5138061;28;20062;-80
2023/01/20 01:31:29;;;;;;;0.47;0.47;;;;;;;1.04;85.41;100566.56;5128092;28;20172;-79
2023/01/20 01:33:59;;;;;;;1.10;1.10;;;;;;;1.00;85.44;100577.72;5128422;28;20019;-79
2023/01/20 01:36:30;;;;;;;1.38;1.20;;;;;;;0.89;85.43;100562.97;5124336;28;20055;-78
2023/01/20 01:39:00;;;;;;;0.88;0.88;;;;;;;0.97;84.98;100575.09;5146706;28;20054;-80
2023/01/20 01:41:31;;;;;;;1.65;1.58;;;;;;;0.91;85.63;100587.13;5116273;29;20069;-81
2023/01/20 01:44:08;;;;;;;2.00;1.90;;;;;;;0.90;85.47;100579.38;5129577;28;20027;-81
2023/01/20 01:46:40;;;;;;;0.85;0.85;;;;;;;0.91;85.57;100583.69;5125760;28;20043;-79
2023/01/20 01:49:16;;;;;;;0.93;0.93;;;;;;;0.92;85.40;100586.28;5113294;28;20216;-79
2023/01/20 01:51:49;;;;;;;0.68;0.68;;;;;;;0.82;85.98;100581.84;5113860;28;20043;-80
2023/01/20 01:54:24;;;;;;;0.63;0.63;;;;;;;0.86;85.96;100587.91;5108668;28;20109;-79
2023/01/20 01:56:54;;;;;;;0.85;0.85;;;;;;;0.88;86.28;100592.25;5135362;28;20051;-79
2023/01/20 01:59:25;;;;;;;0.98;0.90;;;;;;;0.84;86.07;100590.50;5111159;28;20503;-80
2023/01/20 02:01:56;;;;;;;0.25;0.25;;;;;;;0.90;85.86;100603.47;5126067;28;20054;-80
2023/01/20 02:04:27;;;;;;;1.10;1.10;;;;;;;0.89;85.82;100604.31;5121048;28;20031;-80
2023/01/20 02:07:02;;;;;;;7.32;3.28;;;;;;;0.83;86.35;100606.00;5126391;28;20038;-80
2023/01/20 02:09:33;;;;;;;0.73;0.73;;;;;;;1.00;85.89;100607.00;5129560;28;20118;-80
2023/01/20 02:12:11;;;;;;;1.88;1.75;;;;;;;0.96;85.76;100609.53;5128289;28;20047;-80
2023/01/20 02:14:54;;;;;;;1.70;1.60;;;;;;;0.94;85.82;100610.41;5126649;28;20243;-80
2023/01/20 02:17:34;;;;;;;0.75;0.75;;;;;;;0.90;85.63;100603.47;5107819;29;20059;-80
2023/01/20 02:20:41;;;;;;;2.20;2.10;;;;;;;0.93;85.82;100616.44;5122943;28;20054;-80
2023/01/20 02:23:30;;;;;;;0.40;0.40;;;;;;;0.93;85.74;100612.97;5128693;28;21646;-80
2023/01/20 02:26:42;;;;;;;2.38;2.28;;;;;;;0.96;85.89;100620.75;5128450;28;20046;-80
2023/01/20 02:29:40;;;;;;;1.20;1.20;;;;;;;0.97;85.97;100614.75;5080220;29;20131;-80
2023/01/20 02:32:49;;;;;;;4.53;4.10;;;;;;;0.99;86.21;100617.34;5082565;29;20036;-80
2023/01/20 02:35:19;;;;;;;1.20;1.20;;;;;;;1.04;85.76;100619.13;5110801;28;20069;-80
2023/01/20 02:37:57;;;;;;;2.25;2.15;;;;;;;1.03;86.10;100613.94;5122806;28;20039;-80
2023/01/20 02:40:45;;;;;;;2.80;1.48;;;;;;;1.08;85.51;100614.84;5129877;28;20039;-80
2023/01/20 02:43:20;;;;;;;1.15;1.15;;;;;;;1.10;85.94;100620.91;5128222;28;20039;-80
2023/01/20 02:46:30;;;;;;;1.02;1.02;;;;;;;1.07;85.41;100610.53;5121085;28;20616;-80
2023/01/20 02:49:04;;;;;;;0.93;0.93;;;;;;;1.09;85.50;100614.00;5125787;28;20026;-80
2023/01/20 02:51:46;;;;;;;0.70;0.70;;;;;;;1.10;85.41;100614.00;5106009;28;20110;-80
2023/01/20 02:54:20;;;;;;;0.75;0.75;;;;;;;1.11;85.48;100617.47;5110777;28;20027;-80
2023/01/20 02:56:53;;;;;;;0.50;0.50;;;;;;;1.09;86.09;100614.00;5114927;28;20045;-80
2023/01/20 02:59:28;;;;;;;0.47;0.47;;;;;;;1.00;85.21;100616.50;5122057;28;20114;-80
2023/01/20 03:02:07;;;;;;;1.48;1.48;;;;;;;0.87;85.66;100608.59;5139365;28;20089;-80
2023/01/20 03:04:43;;;;;;;0.88;0.88;;;;;;;0.92;85.64;100604.38;5130393;28;20054;-80
2023/01/20 03:07:17;;;;;;;2.13;2.03;;;;;;;0.93;85.50;100611.25;5132505;28;20117;-80
2023/01/20 03:09:50;;;;;;;0.60;0.60;;;;;;;0.92;85.10;100609.53;5143081;28;20247;-80
2023/01/20 03:12:33;;;;;;;2.45;2.25;;;;;;;0.95;85.25;100613.84;5140164;28;20043;-80
2023/01/20 03:15:05;;;;;;;1.17;1.17;;;;;;;0.82;84.86;100620.59;5143100;28;20085;-80
2023/01/20 03:17:36;;;;;;;1.27;0.93;;;;;;;0.85;85.24;100620.66;5138920;28;20466;-80
2023/01/20 03:20:07;;;;;;;0.60;0.60;;;;;;;0.82;85.13;100623.19;5108000;28;20086;-80
2023/01/20 03:22:38;;;;;;;0.90;0.90;;;;;;;0.86;85.44;100630.13;5139278;28;20061;-80
2023/01/20 03:25:10;;;;;;;1.13;1.13;;;;;;;0.85;85.40;100628.41;5130341;28;20030;-79
2023/01/20 03:27:41;;;;;;;0.80;0.80;;;;;;;0.83;85.54;100627.50;5124310;28;20065;-81
2023/01/20 03:30:15;;;;;;;0.90;0.90;;;;;;;0.78;85.82;100631.75;5128130;28;20045;-80
2023/01/20 03:32:48;;;;;;;1.10;1.10;;;;;;;0.94;85.55;100636.25;5118923;28;20038;-80
2023/01/20 03:35:18;;;;;;;1.80;1.70;;;;;;;0.97;85.32;100637.13;5112503;28;20035;-80
2023/01/20 03:37:49;;;;;;;0.80;0.80;;;;;;;0.88;84.88;100641.31;5136695;28;20042;-80
2023/01/20 03:40:25;;;;;;;0.73;0.73;;;;;;;0.88;85.47;100638.75;5109865;28;20078;-80
2023/01/20 03:43:12;;;;;;;1.55;1.45;;;;;;;1.03;85.09;100650.13;5122609;28;20639;-80
2023/01/20 03:46:09;;;;;;;0.47;0.47;;;;;;;1.13;84.55;100654.53;5120813;28;20030;-81
2023/01/20 03:48:49;;;;;;;0.95;0.95;;;;;;;1.18;84.70;100651.97;5140308;28;20037;-80
2023/01/20 03:51:45;;;;;;;0.85;0.85;;;;;;;1.33;84.23;100652.13;5122103;28;20695;-80
2023/01/20 03:54:25;;;;;;;1.67;1.60;;;;;;;1.35;83.96;100654.75;5122158;28;20034;-80
2023/01/20 03:57:07;;;;;;;1.77;1.70;;;;;;;1.38;83.52;100649.59;5140573;28;20057;-80
2023/01/20 03:59:39;;;;;;;2.65;2.45;;;;;;;1.46;83.87;100655.72;5123245;28;20043;-80
2023/01/20 04:02:10;;;;;;;2.10;2.00;;;;;;;1.57;83.88;100661.00;5127941;28;20044;-79
2023/01/20 04:04:44;;;;;;;0.88;0.88;;;;;;;1.42;83.37;100656.53;5123087;28;20034;-80
2023/01/20 04:07:21;;;;;;;0.57;0.57;;;;;;;1.57;83.77;100661.84;5125588;28;20035;-80
2023/01/20 04:09:56;;;;;;;1.27;1.27;;;;;;;1.54;83.04;100656.63;5139188;28;20042;-80
2023/01/20 04:12:27;;;;;;;0.68;0.68;;;;;;;1.55;83.30;100658.38;5118702;28;20073;-79
2023/01/20 04:14:59;;;;;;;0.82;0.82;;;;;;;1.52;83.34;100655.78;5108001;28;20026;-79
2023/01/20 04:17:30;;;;;;;1.08;1.08;;;;;;;1.50;83.07;100654.00;5135683;28;20062;-80
2023/01/20 04:20:07;;;;;;;2.38;2.28;;;;;;;1.59;83.05;100661.00;5132885;28;20531;-80
2023/01/20 04:22:41;;;;;;;1.02;1.02;;;;;;;1.54;83.16;100658.38;5122289;28;20119;-80
2023/01/20 04:25:27;;;;;;;0.77;0.77;;;;;;;1.40;82.89;100668.59;5123466;28;20122;-78
2023/01/20 04:27:58;;;;;;;0.50;0.50;;;;;;;1.60;82.70;100661.00;5139892;28;20039;-80
2023/01/20 04:30:28;;;;;;;1.20;1.15;;;;;;;1.43;83.08;100653.13;5120620;28;20105;-80
2023/01/20 04:32:59;;;;;;;0.40;0.40;;;;;;;1.39;83.27;100661.69;5124512;28;20038;-80
2023/01/20 04:35:29;;;;;;;1.95;1.50;;;;;;;1.40;82.96;100659.13;5121765;28;20371;-80
2023/01/20 04:38:02;;;;;;;4.72;2.90;;;;;;;1.25;82.93;100656.38;5137394;28;20101;-80
2023/01/20 04:40:33;;;;;;;1.05;0.95;;;;;;;1.18;83.11;100658.03;5109785;28;20686;-80
2023/01/20 04:43:04;;;;;;;0.38;0.38;;;;;;;1.22;83.41;100661.53;5117220;28;20098;-80
2023/01/20 04:45:34;;;;;;;2.00;1.90;;;;;;;1.25;83.43;100670.16;5116046;28;20079;-79
2023/01/20 04:48:06;;;;;;;1.33;1.30;;;;;;;1.29;82.79;100670.19;5116765;28;20118;-81
2023/01/20 04:50:40;;;;;;;0.85;0.85;;;;;;;1.08;83.15;100672.56;5116853;28;20462;-80
2023/01/20 04:53:12;;;;;;;1.17;1.15;;;;;;;1.16;83.36;100672.66;5140951;28;20023;-79
2023/01/20 04:55:43;;;;;;;1.38;1.27;;;;;;;1.23;83.42;100671.00;5135889;28;20101;-79
2023/01/20 04:58:13;;;;;;;6.07;4.15;;;;;;;1.12;83.31;100668.28;5140294;28;20026;-80
2023/01/20 05:00:44;;;;;;;0.68;0.63;;;;;;;1.09;84.04;100676.88;5118445;28;20109;-81
2023/01/20 05:03:14;;;;;;;1.08;1.08;;;;;;;1.11;83.87;100682.09;5117537;28;20070;-79
2023/01/20 05:05:53;;;;;;;1.17;1.13;;;;;;;1.20;83.80;100686.47;5132923;28;20073;-79
2023/01/20 05:08:23;;;;;;;0.55;0.55;;;;;;;1.13;83.99;100682.09;5117664;28;20038;-78
2023/01/20 05:10:54;;;;;;;1.00;1.00;;;;;;;1.05;84.15;100682.88;5114187;28;20095;-78
2023/01/20 05:13:24;;;;;;;0.70;0.70;;;;;;;1.05;84.27;100689.75;5101138;28;20043;-80
2023/01/20 05:15:55;;;;;;;2.05;1.95;;;;;;;0.99;83.92;100687.09;5114525;28;20558;-78
2023/01/20 05:18:25;;;;;;;0.70;0.70;;;;;;;1.15;83.75;100691.59;5084349;28;20035;-79
2023/01/20 05:20:56;;;;;;;0.40;0.40;;;;;;;1.02;84.06;100689.72;5092125;28;20405;-79
2023/01/20 05:23:26;;;;;;;1.10;1.10;;;;;;;1.06;84.26;100689.78;5100630;29;20047;-78
2023/01/20 05:25:57;;;;;;;0.90;0.90;;;;;;;0.91;84.23;100690.47;5098218;28;20098;-81
2023/01/20 05:28:27;;;;;;;1.17;1.15;;;;;;;1.01;83.78;100690.56;5078516;28;20608;-80
2023/01/20 05:30:57;;;;;;;0.82;0.82;;;;;;;1.00;84.27;100694.00;5111790;28;20579;-81
2023/01/20 05:33:28;;;;;;;5.93;1.65;;;;;;;0.98;84.66;100693.13;5099079;29;20028;-79
2023/01/20 05:35:58;;;;;;;2.25;0.88;;;;;;;0.89;84.62;100693.88;5121081;28;20073;-81
2023/01/20 05:38:29;;;;;;;2.63;1.00;;;;;;;0.98;84.23;100693.13;5108636;28;20074;-80
2023/01/20 05:41:00;;;;;;;2.63;1.33;;;;;;;0.82;84.95;100705.84;5115150;28;20049;-81
2023/01/20 05:43:32;;;;;;;1.13;1.10;;;;;;;0.89;84.73;100702.50;5099884;29;20715;-80
2023/01/20 05:46:03;;;;;;;1.05;1.05;;;;;;;0.87;84.51;100701.59;5095500;28;20532;-81
2023/01/20 05:48:33;;;;;;;0.85;0.85;;;;;;;0.93;84.32;100703.38;5095251;29;20557;-79
2023/01/20 05:51:03;;;;;;;1.13;0.88;;;;;;;0.94;84.31;100700.84;5116173;28;20073;-81
2023/01/20 05:53:34;;;;;;;3.13;1.90;;;;;;;0.87;84.52;100709.34;5083138;29;20062;-80
2023/01/20 05:56:05;;;;;;;2.03;1.92;;;;;;;0.98;84.63;100716.38;5118282;28;20045;-80
2023/01/20 05:58:35;;;;;;;1.33;1.23;;;;;;;0.97;84.36;100710.34;5102835;29;20039;-80
2023/01/20 06:01:10;;;;;;;1.23;1.23;;;;;;;0.85;84.58;100721.41;5098817;28;20043;-81
2023/01/20 06:03:41;;;;;;;2.40;2.25;;;;;;;0.97;84.60;100725.84;5094306;28;20664;-80
2023/01/20 06:06:17;;;;;;;1.77;1.67;;;;;;;1.03;83.88;100731.09;5103934;28;20114;-80
2023/01/20 06:08:50;;;;;;;0.90;0.90;;;;;;;0.94;84.55;100731.84;5091587;28;20039;-81
2023/01/20 06:11:21;;;;;;;1.65;1.55;;;;;;;0.91;84.14;100738.69;5086785;29;20086;-81
2023/01/20 06:13:51;;;;;;;0.40;0.40;;;;;;;0.87;84.85;100739.50;5104225;28;20102;-79
2023/01/20 06:16:22;;;;;;;1.00;1.00;;;;;;;0.86;84.34;100737.75;5114267;28;20051;-79
2023/01/20 06:18:52;;;;;;;0.70;0.70;;;;;;;0.86;84.94;100741.22;5099737;29;20881;-80
2023/01/20 06:21:23;;;;;;;1.10;1.10;;;;;;;0.89;84.92;100742.97;5112841;28;20584;-81
2023/01/20 06:23:54;;;;;;;0.40;0.40;;;;;;;0.91;84.09;100743.88;5107252;28;20027;-80
2023/01/20 06:26:24;;;;;;;1.50;1.45;;;;;;;0.91;83.95;100739.56;5086561;28;20054;-79
2023/01/20 06:28:59;;;;;;;3.70;2.40;;;;;;;0.74;85.13;100743.63;5118787;28;20031;-83
2023/01/20 06:31:30;;;;;;;2.10;1.90;;;;;;;0.88;85.25;100746.41;5081852;28;20078;-80
2023/01/20 06:34:00;;;;;;;1.63;1.52;;;;;;;0.82;84.77;100754.06;5087851;28;20175;-80
2023/01/20 06:36:31;;;;;;;1.58;1.50;;;;;;;0.84;84.93;100755.81;5104410;28;20066;-82
2023/01/20 06:39:01;;;;;;;1.45;1.40;;;;;;;0.93;84.87;100755.06;5092889;28;20031;-85
2023/01/20 06:41:32;;;;;;;1.75;1.55;;;;;;;0.80;85.27;100764.34;5096266;29;20039;-84
2023/01/20 06:44:02;;;;;;;1.88;1.77;;;;;;;0.94;84.84;100764.56;5120373;28;20030;-84
2023/01/20 06:46:33;;;;;;;0.55;0.55;;;;;;;0.87;84.94;100763.59;5101836;29;20035;-83
2023/01/20 06:49:04;;;;;;;1.38;1.10;;;;;;;0.92;84.51;100769.72;5103611;28;20137;-80
2023/01/20 06:51:34;;;;;;;1.35;1.35;;;;;;;0.87;85.09;100766.19;5104136;28;20035;-80
2023/01/20 06:54:04;;;;;;;0.63;0.63;;;;;;;0.90;85.10;100766.22;5122127;28;20462;-80
2023/01/20 06:56:35;;;;;;;0.80;0.80;;;;;;;0.86;85.29;100774.81;5110967;28;20721;-82
2023/01/20 06:59:06;;;;;;;1.60;1.50;;;;;;;0.92;84.80;100772.28;5136370;28;20162;-82
2023/01/20 07:01:36;;;;;;;2.03;1.92;;;;;;;0.94;84.55;100778.34;5137594;28;20514;-81
2023/01/20 07:04:11;;;;;;;1.98;1.83;;;;;;;0.96;84.86;100785.22;5123519;28;20404;-81
2023/01/20 07:06:41;;;;;;;0.45;0.45;;;;;;;0.89;84.94;100792.91;5112247;28;20046;-81
2023/01/20 07:09:12;;;;;;;1.27;1.27;;;;;;;0.93;84.45;100781.78;5110953;28;20030;-81
2023/01/20 07:11:43;;;;;;;0.40;0.40;;;;;;;1.01;84.97;100786.19;5127959;28;20031;-80
2023/01/20 07:14:13;;;;;;;1.15;1.15;;;;;;;1.02;84.64;100787.91;5135713;28;20037;-79
2023/01/20 07:16:45;;;;;;;1.73;1.63;;;;;;;1.06;84.60;100792.25;5132690;28;20046;-80
2023/01/20 07:19:16;;;;;;;3.70;1.48;;;;;;;1.17;84.12;100785.53;5112788;28;20035;-81
2023/01/20 07:21:46;;;;;;;0.55;0.55;;;;;;;1.11;84.27;100788.03;5136845;28;20114;-84
2023/01/20 07:24:17;;;;;;;1.33;1.25;;;;;;;1.22;84.65;100794.19;5140700;28;20695;-83
2023/01/20 07:26:47;;;;;;;0.98;0.65;;;;;;;1.22;84.19;100794.19;5122520;28;20110;-81
2023/01/20 07:29:18;;;;;;;1.15;1.15;;;;;;;1.10;83.74;100801.81;5140283;28;20070;-82
2023/01/20 07:31:48;;;;;;;1.85;1.75;;;;;;;1.25;83.54;100808.88;5138177;28;20045;-81
2023/01/20 07:34:19;;;;;;;3.00;1.50;;;;;;;1.21;83.72;100810.56;5137369;28;20089;-82
2023/01/20 07:36:52;;;;;;;1.63;1.55;;;;;;;1.21;83.82;100815.72;5105630;28;20035;-84
2023/01/20 07:39:22;;;;;;;2.05;1.95;;;;;;;1.22;83.26;100825.22;5098793;28;20487;-80
2023/01/20 07:41:53;;;;;;;2.00;1.90;;;;;;;1.18;83.60;100826.03;5129158;28;20039;-80
2023/01/20 07:44:23;;;;;;;1.13;1.10;;;;;;;1.25;83.17;100825.28;5126141;28;20623;-79
2023/01/20 07:46:53;;;;;;;0.95;0.90;;;;;;;1.27;83.19;100824.44;5102741;28;20532;-81
2023/01/20 07:49:25;;;;;;;0.60;0.60;;;;;;;1.16;83.15;100834.63;5118088;28;20441;-79
2023/01/20 07:51:56;;;;;;;4.15;1.48;;;;;;;1.29;83.57;100833.94;5107823;28;20032;-79
2023/01/20 07:54:26;;;;;;;2.15;2.05;;;;;;;1.09;82.80;100831.09;5107717;28;20329;-80
2023/01/20 07:56:57;;;;;;;0.40;0.40;;;;;;;1.11;83.17;100837.16;5114600;28;20051;-80
2023/01/20 07:59:28;;;;;;;1.63;1.52;;;;;;;1.19;83.36;100845.00;5111188;28;20039;-80
2023/01/20 08:01:59;;;;;;;1.20;0.75;;;;;;;1.28;82.88;100844.25;5109928;28;20031;-80
2023/01/20 08:04:32;;;;;;;0.52;0.52;;;;;;;1.25;83.08;100843.38;5112104;29;20449;-81
2023/01/20 08:07:03;;;;;;;1.13;1.05;;;;;;;1.28;82.37;100849.44;5115327;28;20070;-80
2023/01/20 08:09:33;;;;;;;0.40;0.40;;;;;;;1.09;82.49;100849.19;5122225;28;20066;-79
2023/01/20 08:12:04;;;;;;;0.30;0.30;;;;;;;1.12;82.27;100851.78;5126223;28;20042;-81
2023/01/20 08:14:35;;;;;;;2.70;2.33;;;;;;;1.20;82.57;100857.91;5138439;28;20043;-80
2023/01/20 08:17:05;;;;;;;1.48;1.38;;;;;;;1.05;82.79;100856.00;5117247;28;20049;-80
2023/01/20 08:19:36;;;;;;;1.13;1.13;;;;;;;1.20;82.95;100857.91;5134614;28;20174;-80
2023/01/20 08:22:06;;;;;;;0.80;0.80;;;;;;;1.21;82.94;100864.84;5117026;28;20061;-80
2023/01/20 08:24:37;;;;;;;0.50;0.50;;;;;;;1.30;82.23;100868.38;5131251;28;20125;-80
2023/01/20 08:27:07;;;;;;;4.03;1.50;;;;;;;1.31;82.21;100872.72;5135857;28;20038;-80
2023/01/20 08:29:38;;;;;;;2.05;1.95;;;;;;;1.37;82.67;100875.38;5130527;28;20066;-80
2023/01/20 08:32:08;;;;;;;1.05;1.05;;;;;;;1.46;82.83;100877.22;5132596;28;20611;-80
2023/01/20 08:34:39;;;;;;;0.88;0.88;;;;;;;1.47;82.53;100882.41;5130972;28;20121;-81
2023/01/20 08:37:09;;;;;;;0.98;0.98;;;;;;;1.45;82.59;100873.75;5116353;28;20102;-81
2023/01/20 08:39:41;;;;;;;0.30;0.30;;;;;;;1.38;82.84;100877.13;5125084;28;20019;-81
2023/01/20 08:42:11;;;;;;;1.50;1.40;;;;;;;1.45;82.73;100872.91;5102384;28;20039;-81
2023/01/20 08:44:42;;;;;;;0.52;0.52;;;;;;;1.49;82.13;100870.38;5111158;28;20515;-81
2023/01/20 08:47:13;;;;;;;2.10;2.00;;;;;;;1.53;82.16;100877.31;5113782;28;20356;-81
2023/01/20 08:49:43;;;;;;;2.05;1.95;;;;;;;1.63;82.41;100877.44;5126470;28;20442;-81
2023/01/20 08:52:14;;;;;;;1.85;1.75;;;;;;;1.66;81.87;100885.25;5116077;28;20049;-82
2023/01/20 08:54:44;;;;;;;0.40;0.40;;;;;;;1.60;81.98;100880.00;5110025;28;20050;-84
2023/01/20 08:57:15;;;;;;;1.15;1.15;;;;;;;1.55;81.45;100885.13;5115459;28;20036;-82
2023/01/20 08:59:46;;;;;;;1.38;1.38;;;;;;;1.49;81.45;100885.91;5110622;28;20027;-82
2023/01/20 09:02:17;;;;;;;0.75;0.75;;;;;;;1.64;81.38;100887.81;5100567;28;20095;-80
2023/01/20 09:04:49;;;;;;;0.65;0.65;;;;;;;1.71;81.43;100884.44;5117595;28;20039;-80
2023/01/20 09:07:19;;;;;;;1.63;1.52;;;;;;;1.69;81.17;100883.56;5113845;28;20035;-81
2023/01/20 09:09:50;;;;;;;2.97;2.78;;;;;;;1.72;81.34;100890.47;5111961;28;20035;-80
2023/01/20 09:12:20;;;;;;;4.68;3.35;;;;;;;1.67;81.78;100886.97;5118195;28;20050;-80
2023/01/20 09:14:51;;;;;;;1.40;1.40;;;;;;;1.69;81.56;100891.31;5112016;28;20027;-82
2023/01/20 09:17:22;;;;;;;0.50;0.50;;;;;;;1.72;81.93;100893.06;5121755;28;20046;-84
2023/01/20 09:19:53;;;;;;;0.88;0.88;;;;;;;1.84;82.04;100887.16;5116023;28;20086;-85
2023/01/20 09:22:23;;;;;;;1.08;1.08;;;;;;;1.84;81.52;100888.06;5106206;28;20047;-83
2023/01/20 09:24:54;;;;;;;4.07;1.75;;;;;;;1.84;81.43;100893.22;5127907;28;20034;-85
2023/01/20 09:27:25;;;;;;;1.00;1.00;;;;;;;1.85;81.72;100886.31;5111166;28;20354;-84
2023/01/20 09:29:56;;;;;;;0.57;0.57;;;;;;;1.89;81.03;100896.72;5113432;28;20094;-87
2023/01/20 09:32:26;;;;;;;1.23;1.13;;;;;;;1.91;80.77;100888.97;5114472;28;20442;-87
2023/01/20 09:34:57;;;;;;;1.00;1.00;;;;;;;1.94;81.08;100885.56;5136442;28;20106;-85
2023/01/20 09:43:53;;;;;;;0.50;0.50;;;;;;;2.00;81.42;100888.22;5117886;28;20047;-83
2023/01/20 09:47:19;;;;;;;1.25;1.25;;;;;;;2.02;80.75;100896.88;5096132;28;20510;-82
2023/01/20 09:53:07;;;;;;;0.50;0.50;;;;;;;2.13;81.06;100899.56;5119841;28;20778;-82
2023/01/20 09:55:41;;;;;;;3.60;2.30;;;;;;;2.19;81.25;100895.31;5123999;28;20050;-82
2023/01/20 09:58:18;;;;;;;0.75;0.75;;;;;;;2.18;81.30;100898.78;5112669;28;20058;-81
2023/01/20 10:00:57;;;;;;;0.60;0.60;;;;;;;2.11;80.19;100902.13;5105612;28;20032;-81
2023/01/20 10:03:38;;;;;;;0.35;0.35;;;;;;;2.13;80.63;100903.00;5109665;29;20043;-80
2023/01/20 10:06:16;;;;;;;1.95;1.85;;;;;;;2.16;80.76;100903.06;5128054;28;20568;-82
2023/01/20 10:08:52;;;;;;;1.40;1.40;;;;;;;2.07;81.00;100899.50;5123839;28;20186;-79
2023/01/20 10:11:25;;;;;;;1.48;1.38;;;;;;;2.11;80.40;100899.53;5130947;28;20039;-80
2023/01/20 10:14:11;;;;;;;0.73;0.73;;;;;;;2.22;81.13;100902.25;5119795;28;20058;-79
2023/01/20 10:17:05;;;;;;;0.73;0.73;;;;;;;2.12;80.59;100898.69;5117100;28;20036;-82
2023/01/20 10:19:55;;;;;;;0.77;0.77;;;;;;;2.25;80.77;100891.91;5132574;28;20757;-86
2023/01/20 10:22:36;;;;;;;0.50;0.50;;;;;;;2.29;81.11;100895.41;5109519;28;20071;-82
2023/01/20 10:25:21;;;;;;;1.80;1.70;;;;;;;2.32;81.24;100898.88;5122409;28;20019;-81
2023/01/20 10:27:56;;;;;;;1.25;1.20;;;;;;;2.32;81.29;100896.28;5106175;28;20047;-82
2023/01/20 10:30:34;;;;;;;2.20;2.08;;;;;;;2.39;81.21;100898.97;5115393;28;20042;-84
2023/01/20 10:33:08;;;;;;;1.63;1.48;;;;;;;2.32;80.96;100898.88;5119852;28;20039;-82
2023/01/20 10:35:59;;;;;;;1.83;1.73;;;;;;;2.45;80.99;100897.28;5120679;28;20676;-84
2023/01/20 10:38:54;;;;;;;1.08;1.08;;;;;;;2.47;80.43;100899.91;5093426;29;20054;-82
2023/01/20 10:41:37;;;;;;;0.50;0.50;;;;;;;2.47;80.91;100900.75;5115296;28;20109;-82
2023/01/20 10:44:13;;;;;;;0.50;0.50;;;;;;;2.51;80.73;100899.06;5135139;28;20039;-86
2023/01/20 10:47:12;;;;;;;1.33;1.13;;;;;;;2.62;81.36;100893.97;5102805;28;21351;-87
2023/01/20 10:49:58;;;;;;;1.52;1.42;;;;;;;2.61;80.58;100894.81;5103111;28;20039;-84
2023/01/20 10:52:44;;;;;;;0.65;0.65;;;;;;;2.58;80.68;100893.09;5102458;28;20051;-83
2023/01/20 10:55:20;;;;;;;1.33;1.13;;;;;;;2.62;80.93;100891.38;5114978;28;20075;-84
2023/01/20 10:58:00;;;;;;;1.38;1.30;;;;;;;2.67;81.36;100897.50;5109861;28;20137;-85
2023/01/20 11:00:32;;;;;;;0.68;0.68;;;;;;;2.72;81.06;100900.13;5103663;28;20094;-84
2023/01/20 11:03:04;;;;;;;1.25;1.25;;;;;;;2.72;80.62;100890.59;5102120;28;20047;-84
2023/01/20 11:05:37;;;;;;;0.70;0.70;;;;;;;2.75;80.81;100890.66;5123128;28;20025;-84
2023/01/20 11:08:19;;;;;;;0.52;0.52;;;;;;;2.72;81.22;100890.59;5100957;28;20039;-84
2023/01/20 11:10:57;;;;;;;0.57;0.57;;;;;;;2.74;81.04;100896.69;5100404;28;20179;-83
2023/01/20 11:13:28;;;;;;;0.80;0.80;;;;;;;2.75;81.49;100890.66;5103844;28;20856;-83
2023/01/20 11:16:05;;;;;;;3.33;2.20;;;;;;;2.70;81.13;100892.31;5134458;28;20118;-84
2023/01/20 11:18:36;;;;;;;0.88;0.88;;;;;;;2.79;81.33;100897.56;5122958;28;20749;-81
2023/01/20 11:21:10;;;;;;;8.88;1.27;;;;;;;2.78;80.81;100894.97;5129397;28;20122;-80
2023/01/20 11:23:48;;;;;;;0.30;0.30;;;;;;;2.76;81.07;100891.50;5113417;28;20662;-80
2023/01/20 11:26:32;;;;;;;1.38;1.02;;;;;;;2.77;80.91;100899.28;5134198;28;20039;-82
2023/01/20 11:29:09;;;;;;;0.82;0.82;;;;;;;2.82;81.38;100897.59;5118426;28;20033;-82
2023/01/20 11:31:46;;;;;;;1.00;1.00;;;;;;;2.87;80.71;100902.84;5114719;28;20162;-78
2023/01/20 11:34:23;;;;;;;2.17;1.25;;;;;;;2.90;80.72;100899.38;5106280;28;20027;-81
2023/01/20 11:37:06;;;;;;;0.57;0.57;;;;;;;2.85;80.83;100896.75;5133019;28;20039;-79
2023/01/20 11:39:49;;;;;;;0.85;0.85;;;;;;;2.82;80.80;100899.31;5117108;28;20597;-82
2023/01/20 11:42:25;;;;;;;0.63;0.63;;;;;;;2.78;80.36;100900.16;5115851;28;20039;-82
2023/01/20 11:44:58;;;;;;;2.05;1.80;;;;;;;2.60;80.97;100898.31;5107958;28;20027;-82
2023/01/20 11:47:31;;;;;;;0.80;0.80;;;;;;;2.59;80.62;100899.16;5126245;28;20051;-83
2023/01/20 11:50:08;;;;;;;;;;;;;;;2.57;80.99;100898.25;5137793;28;20129;-82
2023/01/20 11:52:42;;;;;;;21.20;2.45;;;;;;;2.56;81.05;100901.69;5114800;28;20306;-80
2023/01/20 11:55:22;;;;;;;0.77;0.77;;;;;;;2.62;81.10;100896.56;5127551;28;20034;-82
2023/01/20 11:57:59;;;;;;;0.35;0.35;;;;;;;2.58;81.02;100887.03;5123207;28;20122;-80
2023/01/20 12:01:06;;;;;;;0.85;0.85;;;;;;;2.67;81.46;100884.53;5117455;28;20070;-79
2023/01/20 12:03:44;;;;;;;1.80;1.70;;;;;;;2.69;80.93;100875.03;5118886;28;20050;-81
2023/01/20 12:06:28;;;;;;;1.42;1.33;;;;;;;2.68;81.33;100878.50;5105248;28;20070;-80
2023/01/20 12:09:03;;;;;;;0.50;0.50;;;;;;;2.66;81.46;100873.28;5119030;28;20041;-81
2023/01/20 12:11:41;;;;;;;0.50;0.50;;;;;;;2.62;81.79;100878.44;5114286;28;20035;-80
2023/01/20 12:14:22;;;;;;;0.47;0.47;;;;;;;2.59;81.54;100873.25;5131018;28;20046;-81
2023/01/20 12:17:01;;;;;;;0.40;0.40;;;;;;;2.64;81.79;100876.72;5131006;28;20051;-81